Time;durP1;ratioP1;P1;durP2;ratioP2;P2;SDS_P1;SDS_P2;PMS_P1;PMS_P2;Temp;Humidity;BMP_temperature;BMP_pressure;BME280_temperature;BME280_humidity;BME280_pressure;Samples;Min_cycle;Max_cycle;Signal;HPM_P1;HPM_P2
2022/09/08 00:00:07;;;;;;;25.42;22.73;;;28.00;99.90;;;;;;4158572;28;20115;-75
2022/09/08 00:02:13;;;;;;;24.70;22.15;;;27.80;99.90;;;;;;4142358;28;20081;-74
2022/09/08 00:04:24;;;;;;;24.27;21.80;;;27.80;99.90;;;;;;4158856;28;20060;-74
2022/09/08 00:06:32;;;;;;;23.90;21.58;;;27.90;99.90;;;;;;4158505;28;20079;-75
2022/09/08 00:08:39;;;;;;;24.23;21.70;;;27.90;99.90;;;;;;4210965;28;20044;-75
2022/09/08 00:10:47;;;;;;;25.40;22.70;;;27.90;99.90;;;;;;4204853;28;20052;-76
2022/09/08 00:13:00;;;;;;;24.35;21.95;;;27.80;99.90;;;;;;4192690;28;20055;-75
2022/09/08 00:15:07;;;;;;;23.67;20.95;;;27.80;99.90;;;;;;4194192;28;20720;-76
2022/09/08 00:17:18;;;;;;;23.48;21.05;;;27.80;99.90;;;;;;4194001;28;20060;-76
2022/09/08 00:19:27;;;;;;;24.30;21.75;;;27.80;99.90;;;;;;4192824;28;20044;-75
2022/09/08 00:21:51;;;;;;;22.65;20.25;;;27.80;99.90;;;;;;4192584;28;20064;-76
2022/09/08 00:24:05;;;;;;;25.20;21.08;;;27.80;99.90;;;;;;4192908;28;20052;-74
2022/09/08 00:26:27;;;;;;;22.73;20.42;;;27.80;99.90;;;;;;4193970;28;20068;-75
2022/09/08 00:28:51;;;;;;;21.60;19.60;;;27.80;99.90;;;;;;4193151;28;20059;-74
2022/09/08 00:31:06;;;;;;;23.83;21.27;;;27.90;99.90;;;;;;4193880;28;20056;-75
2022/09/08 00:33:23;;;;;;;25.75;20.17;;;27.90;99.90;;;;;;4206168;28;20125;-74
2022/09/08 00:35:28;;;;;;;22.17;20.00;;;27.80;99.90;;;;;;4206950;28;20525;-75
2022/09/08 00:37:55;;;;;;;23.50;20.70;;;27.80;99.90;;;;;;4192169;28;20915;-75
2022/09/08 00:40:21;;;;;;;24.08;19.75;;;27.70;99.90;;;;;;4179703;28;20040;-74
2022/09/08 00:42:35;;;;;;;24.38;21.70;;;27.70;99.90;;;;;;4194246;28;20139;-75
2022/09/08 00:45:01;;;;;;;22.98;20.73;;;27.80;99.90;;;;;;4209125;28;20080;-76
2022/09/08 00:47:35;;;;;;;23.83;21.33;;;27.80;99.90;;;;;;4192824;28;20469;-74
2022/09/08 00:50:24;;;;;;;23.92;21.52;;;27.80;99.90;;;;;;4192322;28;20053;-74
2022/09/08 00:52:50;;;;;;;23.15;20.63;;;27.60;99.90;;;;;;4193376;28;20060;-76
2022/09/08 00:54:57;;;;;;;22.55;20.13;;;27.60;99.90;;;;;;4192230;28;20079;-75
2022/09/08 00:57:23;;;;;;;23.08;20.58;;;27.60;99.90;;;;;;4206481;28;20697;-75
2022/09/08 00:59:36;;;;;;;27.35;21.17;;;27.60;99.90;;;;;;4193702;28;20056;-75
2022/09/08 01:02:00;;;;;;;22.87;20.57;;;27.70;99.90;;;;;;4196534;28;20079;-75
2022/09/08 01:04:25;;;;;;;;;;;27.70;99.90;;;;;;4213118;28;20288;-75
2022/09/08 01:15:01;;;;;;;22.27;20.05;;;27.90;99.90;;;;;;4212648;28;20058;-75
2022/09/08 01:17:23;;;;;;;23.73;21.15;;;27.90;99.90;;;;;;4212699;28;20067;-75
2022/09/08 01:19:31;;;;;;;22.08;19.88;;;27.90;99.90;;;;;;4212620;28;20051;-75
2022/09/08 01:22:04;;;;;;;22.65;20.40;;;27.90;99.90;;;;;;4212923;28;20037;-74
2022/09/08 01:24:46;;;;;;;23.58;21.10;;;27.90;99.90;;;;;;4211369;28;20078;-76
2022/09/08 01:27:24;;;;;;;21.48;19.38;;;27.90;99.90;;;;;;4198178;28;20400;-76
2022/09/08 01:29:28;;;;;;;21.70;19.40;;;28.00;99.90;;;;;;4211604;28;20047;-76
2022/09/08 01:31:34;;;;;;;21.33;19.02;;;28.00;99.90;;;;;;4213282;28;20058;-76
2022/09/08 01:33:43;;;;;;;21.55;18.92;;;28.10;99.90;;;;;;4212649;28;20097;-76
2022/09/08 01:35:49;;;;;;;21.80;19.73;;;28.00;99.90;;;;;;4213707;28;20047;-76
2022/09/08 01:37:55;;;;;;;21.20;18.98;;;28.00;99.90;;;;;;4212863;28;20044;-76
2022/09/08 01:40:03;;;;;;;22.88;19.10;;;28.10;99.90;;;;;;4212839;28;20632;-75
2022/09/08 01:42:08;;;;;;;19.90;17.83;;;27.80;99.90;;;;;;4213027;28;20113;-77
2022/09/08 01:44:13;;;;;;;21.42;19.15;;;27.90;99.90;;;;;;4212408;28;20135;-75
2022/09/08 01:46:20;;;;;;;19.65;17.75;;;27.60;99.90;;;;;;4212650;28;20071;-76
2022/09/08 01:48:26;;;;;;;20.55;18.40;;;27.30;99.90;;;;;;4212529;28;20043;-76
2022/09/08 01:50:31;;;;;;;21.50;18.50;;;27.20;99.90;;;;;;4212412;28;20044;-77
2022/09/08 01:52:39;;;;;;;21.08;18.75;;;27.20;99.90;;;;;;4212815;28;20089;-76
2022/09/08 01:54:44;;;;;;;21.77;18.40;;;27.50;99.90;;;;;;4212228;28;20454;-76
2022/09/08 01:56:49;;;;;;;20.23;18.17;;;27.60;99.90;;;;;;4211576;28;20047;-75
2022/09/08 01:58:58;;;;;;;21.23;19.05;;;27.80;99.90;;;;;;4211158;28;20113;-76
2022/09/08 02:01:04;;;;;;;21.20;19.10;;;27.90;99.90;;;;;;4212446;28;20071;-76
2022/09/08 02:03:13;;;;;;;20.17;18.10;;;27.90;99.90;;;;;;4212238;28;20048;-77
2022/09/08 02:05:21;;;;;;;20.15;18.13;;;28.10;99.90;;;;;;4211880;28;20637;-77
2022/09/08 02:07:27;;;;;;;21.15;19.17;;;28.10;99.90;;;;;;4212897;28;20059;-77
2022/09/08 02:09:32;;;;;;;21.02;18.92;;;28.20;99.90;;;;;;4211650;28;20045;-76
2022/09/08 02:11:41;;;;;;;20.65;18.55;;;28.20;99.90;;;;;;4212665;28;20119;-76
2022/09/08 02:13:46;;;;;;;20.75;18.75;;;28.20;99.90;;;;;;4210813;28;20048;-77
2022/09/08 02:16:06;;;;;;;21.30;18.92;;;28.20;99.90;;;;;;4212340;28;20487;-76
2022/09/08 02:18:13;;;;;;;20.60;18.60;;;28.10;99.90;;;;;;4212884;28;20538;-76
2022/09/08 02:20:18;;;;;;;20.70;18.65;;;27.70;99.90;;;;;;4213155;28;20051;-77
2022/09/08 02:22:25;;;;;;;22.23;19.05;;;27.90;99.90;;;;;;4214775;28;20052;-76
2022/09/08 02:24:34;;;;;;;21.23;18.85;;;27.90;99.90;;;;;;4212320;28;20044;-77
2022/09/08 02:26:40;;;;;;;20.98;18.77;;;27.90;99.90;;;;;;4214002;28;20070;-77
2022/09/08 02:28:52;;;;;;;20.95;18.83;;;27.90;99.90;;;;;;4214149;28;20069;-77
2022/09/08 02:31:04;;;;;;;21.58;19.38;;;28.00;99.90;;;;;;4213426;28;20036;-76
2022/09/08 02:33:10;;;;;;;20.45;18.45;;;27.90;99.90;;;;;;4211792;28;20036;-76
2022/09/08 02:35:19;;;;;;;22.35;20.17;;;27.90;99.90;;;;;;4212306;28;20559;-77
2022/09/08 02:37:42;;;;;;;21.98;19.52;;;27.90;99.90;;;;;;4213163;28;20462;-76
2022/09/08 02:39:49;;;;;;;21.15;18.98;;;28.00;99.90;;;;;;4211725;28;20040;-74
2022/09/08 02:41:56;;;;;;;21.30;19.00;;;28.00;99.90;;;;;;4210561;28;20044;-73
2022/09/08 02:44:06;;;;;;;21.23;19.05;;;28.00;99.90;;;;;;4210892;28;20047;-73
2022/09/08 02:46:20;;;;;;;22.58;20.25;;;27.90;99.90;;;;;;4211143;28;20101;-73
2022/09/08 02:48:30;;;;;;;34.63;26.45;;;27.70;99.90;;;;;;4210329;28;20052;-75
2022/09/08 02:50:45;;;;;;;33.55;27.25;;;27.60;99.90;;;;;;4195123;28;20044;-75
2022/09/08 02:53:05;;;;;;;28.50;23.73;;;27.40;99.90;;;;;;4209207;28;20056;-75
2022/09/08 02:55:19;;;;;;;26.17;21.60;;;27.30;99.90;;;;;;4211062;28;20040;-75
2022/09/08 02:57:25;;;;;;;23.55;20.92;;;27.50;99.90;;;;;;4211462;28;20143;-75
2022/09/08 02:59:29;;;;;;;23.17;20.77;;;27.50;99.90;;;;;;4211797;28;20044;-75
2022/09/08 03:01:35;;;;;;;22.98;20.67;;;27.60;99.90;;;;;;4211362;28;20063;-74
2022/09/08 03:03:43;;;;;;;20.65;18.75;;;27.60;99.90;;;;;;4211147;28;20043;-74
2022/09/08 03:05:53;;;;;;;20.77;18.70;;;27.50;99.90;;;;;;4211190;28;20044;-75
2022/09/08 03:08:03;;;;;;;21.40;19.30;;;27.60;99.90;;;;;;4211942;28;20044;-74
2022/09/08 03:10:10;;;;;;;22.45;20.35;;;27.70;99.90;;;;;;4211412;28;20066;-75
2022/09/08 03:12:15;;;;;;;20.85;18.70;;;27.60;99.90;;;;;;4211398;28;20036;-75
2022/09/08 03:14:19;;;;;;;20.65;18.23;;;27.40;99.90;;;;;;4211250;28;20133;-74
2022/09/08 03:16:30;;;;;;;21.38;19.27;;;27.60;99.90;;;;;;4211326;28;20048;-75
2022/09/08 03:18:35;;;;;;;21.13;19.02;;;27.80;99.90;;;;;;4211291;28;20059;-75
2022/09/08 03:20:40;;;;;;;21.05;19.02;;;28.00;99.90;;;;;;4211330;28;20048;-74
2022/09/08 03:22:49;;;;;;;21.10;18.90;;;28.10;99.90;;;;;;4210092;28;20051;-75
2022/09/08 03:24:53;;;;;;;21.20;19.05;;;28.10;99.90;;;;;;4211059;28;20076;-74
2022/09/08 03:27:00;;;;;;;20.17;18.08;;;28.20;99.90;;;;;;4209856;28;20052;-74
2022/09/08 03:29:06;;;;;;;22.10;17.92;;;28.10;99.90;;;;;;4212995;28;20695;-74
2022/09/08 03:31:16;;;;;;;22.83;19.08;;;28.30;99.90;;;;;;4214169;28;20165;-74
2022/09/08 03:33:20;;;;;;;21.38;19.38;;;28.50;99.90;;;;;;4212824;28;20048;-75
2022/09/08 03:35:27;;;;;;;21.50;19.30;;;28.60;99.90;;;;;;4212466;28;20058;-74
2022/09/08 03:37:38;;;;;;;20.42;18.30;;;28.30;99.90;;;;;;4212859;28;20051;-75
2022/09/08 03:39:43;;;;;;;21.35;18.52;;;28.40;99.90;;;;;;4214038;28;20048;-75
2022/09/08 03:41:51;;;;;;;21.35;19.17;;;28.30;99.90;;;;;;4214126;28;20047;-75
2022/09/08 03:43:56;;;;;;;21.55;19.45;;;28.40;99.90;;;;;;4213651;28;20078;-75
2022/09/08 03:46:07;;;;;;;21.15;19.08;;;28.00;99.90;;;;;;4214111;28;20040;-75
2022/09/08 03:48:17;;;;;;;20.08;18.08;;;28.20;99.90;;;;;;4214157;28;20063;-75
2022/09/08 03:50:21;;;;;;;20.38;18.35;;;28.20;99.90;;;;;;4214011;28;20052;-75
2022/09/08 03:52:26;;;;;;;21.50;19.38;;;28.20;99.90;;;;;;4212555;28;20076;-75
2022/09/08 03:56:56;;;;;;;19.70;17.80;;;28.20;99.90;;;;;;4213669;28;20047;-75
2022/09/08 03:59:09;;;;;;;20.85;18.85;;;28.50;99.90;;;;;;4213149;28;20055;-75
2022/09/08 04:01:37;;;;;;;19.88;17.77;;;28.70;99.90;;;;;;4212965;28;20441;-75
2022/09/08 04:03:50;;;;;;;19.55;17.42;;;28.90;99.90;;;;;;4213860;28;20115;-76
2022/09/08 04:05:59;;;;;;;19.98;17.92;;;29.10;99.90;;;;;;4212595;28;20064;-75
2022/09/08 04:08:05;;;;;;;19.77;17.80;;;29.10;99.90;;;;;;4213924;28;20713;-75
2022/09/08 04:10:15;;;;;;;19.80;17.83;;;29.10;99.90;;;;;;4213728;28;20052;-75
2022/09/08 04:12:26;;;;;;;19.80;17.80;;;29.00;99.90;;;;;;4214028;28;20131;-75
2022/09/08 04:14:38;;;;;;;19.58;17.67;;;28.90;99.90;;;;;;4213757;28;20055;-75
2022/09/08 04:16:54;;;;;;;19.48;17.58;;;28.70;99.90;;;;;;4214216;28;20048;-77
2022/09/08 04:19:05;;;;;;;19.83;17.83;;;28.70;99.90;;;;;;4213808;28;20056;-75
2022/09/08 04:21:14;;;;;;;19.02;16.60;;;28.70;99.90;;;;;;4213719;28;20056;-76
2022/09/08 04:23:19;;;;;;;20.35;17.98;;;28.70;99.90;;;;;;4213718;28;20071;-75
2022/09/08 04:25:24;;;;;;;20.35;17.02;;;28.60;99.90;;;;;;4212300;28;20044;-76
2022/09/08 04:27:34;;;;;;;19.50;17.67;;;28.70;99.90;;;;;;4213881;28;20064;-76
2022/09/08 04:29:39;;;;;;;19.33;17.42;;;28.70;99.90;;;;;;4213645;28;20036;-76
2022/09/08 04:31:47;;;;;;;20.02;18.05;;;28.80;99.90;;;;;;4212537;28;20040;-78
2022/09/08 04:33:56;;;;;;;18.50;16.60;;;28.80;99.90;;;;;;4213428;28;20072;-76
2022/09/08 04:36:15;;;;;;;18.30;16.50;;;28.70;99.90;;;;;;4213022;28;20426;-76
2022/09/08 04:38:29;;;;;;;18.35;15.95;;;28.70;99.90;;;;;;4213581;28;20079;-76
2022/09/08 04:40:37;;;;;;;18.95;17.15;;;28.80;99.90;;;;;;4208067;28;20040;-77
2022/09/08 04:42:42;;;;;;;18.58;16.77;;;28.80;99.90;;;;;;4213386;28;20047;-77
2022/09/08 04:44:47;;;;;;;20.58;17.17;;;28.90;99.90;;;;;;4212949;28;20040;-77
2022/09/08 04:46:54;;;;;;;19.80;16.60;;;29.00;99.90;;;;;;4212968;28;20040;-76
2022/09/08 04:48:59;;;;;;;18.58;15.93;;;29.20;99.90;;;;;;4212612;28;20510;-76
2022/09/08 04:51:04;;;;;;;18.58;16.67;;;29.30;99.90;;;;;;4212627;28;20441;-76
2022/09/08 04:53:12;;;;;;;18.08;16.30;;;29.40;99.90;;;;;;4213308;28;20044;-76
2022/09/08 04:55:17;;;;;;;17.88;15.95;;;29.40;99.90;;;;;;4213186;28;20090;-77
2022/09/08 04:57:22;;;;;;;18.63;16.73;;;29.60;99.90;;;;;;4212787;28;20047;-76
2022/09/08 04:59:31;;;;;;;18.02;15.15;;;29.70;99.90;;;;;;4212389;28;20549;-77
2022/09/08 05:01:38;;;;;;;17.42;15.70;;;29.80;99.90;;;;;;4212787;28;20071;-77
2022/09/08 05:03:43;;;;;;;17.50;15.80;;;30.00;99.90;;;;;;4213311;28;20043;-77
2022/09/08 05:05:52;;;;;;;17.88;16.13;;;30.10;99.90;;;;;;4213827;28;20391;-77
2022/09/08 05:07:57;;;;;;;18.90;17.08;;;30.20;99.90;;;;;;4212497;28;20044;-71
2022/09/08 05:10:06;;;;;;;17.30;15.52;;;30.10;99.90;;;;;;4212501;28;20044;-76
2022/09/08 05:12:13;;;;;;;16.85;15.25;;;30.10;99.90;;;;;;4207838;28;20047;-74
2022/09/08 05:14:18;;;;;;;17.55;15.82;;;30.20;99.90;;;;;;4211526;28;20051;-75
2022/09/08 05:16:25;;;;;;;17.65;15.85;;;30.20;99.90;;;;;;4203439;28;20036;-74
2022/09/08 05:18:35;;;;;;;17.58;15.77;;;30.40;99.90;;;;;;4208885;28;20198;-75
2022/09/08 05:20:55;;;;;;;16.75;15.00;;;30.50;99.90;;;;;;4210450;28;20619;-75
2022/09/08 05:23:19;;;;;;;16.33;14.45;;;30.60;99.90;;;;;;4200179;28;20056;-74
2022/09/08 05:25:53;;;;;;;16.08;14.57;;;30.60;99.90;;;;;;4196979;28;20048;-73
2022/09/08 05:28:08;;;;;;;16.13;14.52;;;30.70;99.90;;;;;;4212464;28;20079;-73
2022/09/08 05:30:15;;;;;;;15.18;13.38;;;30.80;99.90;;;;;;4212506;28;20127;-74
2022/09/08 05:32:33;;;;;;;15.77;14.18;;;30.90;99.90;;;;;;4208524;28;20136;-76
2022/09/08 05:34:44;;;;;;;16.50;14.77;;;31.00;99.90;;;;;;4195781;28;20402;-75
2022/09/08 05:37:02;;;;;;;14.38;12.98;;;30.90;99.90;;;;;;4199592;28;20067;-75
2022/09/08 05:39:14;;;;;;;14.90;13.40;;;30.80;99.90;;;;;;4211779;28;20391;-74
2022/09/08 05:41:21;;;;;;;14.50;13.02;;;30.80;99.90;;;;;;4211828;28;20448;-74
2022/09/08 05:43:26;;;;;;;13.93;12.40;;;30.80;99.90;;;;;;4206760;28;20558;-75
2022/09/08 05:45:50;;;;;;;17.33;11.98;;;30.80;99.90;;;;;;4203625;28;20058;-74
2022/09/08 05:47:56;;;;;;;14.82;12.68;;;30.80;99.90;;;;;;4208198;28;20063;-75
2022/09/08 05:50:03;;;;;;;17.65;12.93;;;30.70;99.90;;;;;;4208699;28;20048;-76
2022/09/08 05:52:10;;;;;;;14.30;12.52;;;30.80;99.90;;;;;;4205339;28;20044;-76
2022/09/08 05:54:31;;;;;;;15.80;12.23;;;30.90;99.90;;;;;;4198989;28;20050;-75
2022/09/08 05:56:49;;;;;;;13.70;12.38;;;31.00;99.90;;;;;;4204972;28;20040;-75
2022/09/08 05:59:14;;;;;;;12.23;11.02;;;31.10;99.90;;;;;;4201339;28;20113;-74
2022/09/08 06:01:19;;;;;;;14.40;12.95;;;31.20;99.90;;;;;;4200800;28;20920;-74
2022/09/08 06:03:26;;;;;;;14.70;13.05;;;31.20;99.90;;;;;;4204025;28;20738;-74
2022/09/08 06:05:35;;;;;;;13.25;11.95;;;31.30;99.90;;;;;;4205610;28;20052;-74
2022/09/08 06:07:46;;;;;;;13.73;12.43;;;31.30;99.90;;;;;;4206112;28;20058;-74
2022/09/08 06:10:01;;;;;;;15.23;12.60;;;31.20;99.90;;;;;;4200587;28;20044;-75
2022/09/08 06:12:15;;;;;;;;;;;31.10;99.90;;;;;;4205293;28;20405;-75
2022/09/08 06:14:21;;;;;;;14.02;12.63;;;31.10;99.90;;;;;;4209044;28;19924;-74
2022/09/08 06:16:28;;;;;;;13.45;12.05;;;31.20;99.90;;;;;;4208581;28;20052;-74
2022/09/08 06:18:34;;;;;;;12.38;11.15;;;31.30;99.90;;;;;;4207029;28;20052;-75
2022/09/08 06:20:38;;;;;;;13.05;11.77;;;31.40;99.90;;;;;;4211336;28;20089;-75
2022/09/08 06:22:45;;;;;;;13.02;11.40;;;31.40;99.90;;;;;;4211631;28;20048;-75
2022/09/08 06:24:52;;;;;;;14.38;12.00;;;31.40;99.90;;;;;;4211095;28;20748;-75
2022/09/08 06:27:29;;;;;;;11.82;10.57;;;31.60;99.30;;;;;;4210197;28;20130;-75
2022/09/08 06:29:55;;;;;;;11.93;10.82;;;31.50;99.30;;;;;;4210199;28;20044;-74
2022/09/08 06:32:09;;;;;;;11.13;9.50;;;31.60;99.50;;;;;;4211613;28;20047;-74
2022/09/08 06:34:26;;;;;;;10.90;9.90;;;31.70;98.90;;;;;;4211325;28;20641;-75
2022/09/08 06:36:54;;;;;;;11.00;9.80;;;31.70;99.00;;;;;;4211313;28;20392;-75
2022/09/08 06:39:02;;;;;;;14.77;10.43;;;31.60;99.00;;;;;;4204971;28;20036;-75
2022/09/08 06:41:25;;;;;;;11.30;10.30;;;31.60;98.90;;;;;;4210912;28;20063;-74
2022/09/08 06:43:54;;;;;;;12.15;10.95;;;31.60;99.40;;;;;;4201252;28;20048;-74
2022/09/08 06:46:18;;;;;;;10.80;9.80;;;31.70;99.10;;;;;;2377611;27;10001403;-74
2022/09/08 06:48:31;;;;;;;11.40;10.25;;;31.70;99.10;;;;;;4142537;28;20038;-73
2022/09/08 06:50:57;;;;;;;13.13;10.20;;;31.60;99.10;;;;;;4152823;28;20038;-75
2022/09/08 06:53:05;;;;;;;12.02;10.82;;;31.70;99.10;;;;;;4173835;28;20053;-74
2022/09/08 06:55:31;;;;;;;11.35;10.25;;;31.80;98.90;;;;;;4158551;28;20070;-75
2022/09/08 06:57:53;;;;;;;11.55;9.93;;;32.00;98.80;;;;;;4156730;28;20049;-75
2022/09/08 07:00:25;;;;;;;11.48;10.38;;;31.90;98.60;;;;;;4159613;28;20053;-75
2022/09/08 07:03:10;;;;;;;10.93;9.82;;;32.00;98.70;;;;;;4159000;28;20045;-75
2022/09/08 07:05:49;;;;;;;11.43;9.95;;;32.00;98.50;;;;;;4156961;28;20046;-74
2022/09/08 07:08:19;;;;;;;11.93;10.27;;;32.00;98.40;;;;;;4160093;28;20099;-75
2022/09/08 07:10:39;;;;;;;10.65;9.65;;;32.00;98.40;;;;;;4161260;28;20060;-75
2022/09/08 07:13:02;;;;;;;11.18;9.80;;;31.90;98.50;;;;;;4161660;28;20052;-75
2022/09/08 07:15:32;;;;;;;10.98;9.88;;;31.80;98.60;;;;;;4161429;28;20057;-74
2022/09/08 07:17:49;;;;;;;12.38;10.35;;;31.70;98.90;;;;;;4159058;28;20088;-75
2022/09/08 07:19:54;;;;;;;;;;;31.60;99.00;;;;;;4161931;28;20080;-75
2022/09/08 07:22:24;;;;;;;12.07;10.40;;;31.70;98.80;;;;;;4160777;28;20734;-75
2022/09/08 07:24:34;;;;;;;11.45;10.25;;;31.70;98.80;;;;;;4161336;28;20049;-75
2022/09/08 07:26:46;;;;;;;11.32;10.00;;;31.80;98.70;;;;;;4161978;28;20046;-75
2022/09/08 07:28:51;;;;;;;12.63;10.70;;;31.70;98.60;;;;;;4155912;28;20056;-75
2022/09/08 07:31:02;;;;;;;11.93;10.55;;;31.90;98.60;;;;;;4157015;28;20303;-75
2022/09/08 07:33:15;;;;;;;11.60;10.18;;;32.00;98.30;;;;;;4160957;28;20057;-75
2022/09/08 07:35:34;;;;;;;;;;;32.00;98.20;;;;;;4176220;28;20650;-75
2022/09/08 07:37:51;;;;;;;11.13;9.32;;;31.90;97.40;;;;;;4158974;28;19928;-75
2022/09/08 07:40:08;;;;;;;;;;;31.80;97.80;;;;;;4174509;28;20045;-75
2022/09/08 07:42:17;;;;;;;10.18;9.18;;;31.90;97.80;;;;;;4145046;28;20312;-75
2022/09/08 07:44:26;;;;;;;10.63;9.45;;;32.00;98.00;;;;;;4145090;28;20875;-74
2022/09/08 07:47:07;;;;;;;11.20;8.73;;;32.10;97.90;;;;;;4144774;28;20054;-75
2022/09/08 07:49:26;;;;;;;10.25;9.13;;;32.10;97.80;;;;;;4149229;28;20206;-75
2022/09/08 07:51:36;;;;;;;9.85;8.93;;;32.00;97.80;;;;;;4160663;28;20052;-74
2022/09/08 07:53:49;;;;;;;9.30;8.40;;;31.90;98.10;;;;;;4161278;28;20128;-76
2022/09/08 07:55:55;;;;;;;11.15;8.27;;;31.70;98.00;;;;;;4160262;28;20063;-76
2022/09/08 07:58:28;;;;;;;9.43;8.50;;;31.80;98.20;;;;;;4161002;28;20041;-75
2022/09/08 08:01:01;;;;;;;11.35;8.85;;;31.80;97.90;;;;;;4159955;28;20154;-76
2022/09/08 08:03:40;;;;;;;8.82;8.00;;;31.90;98.10;;;;;;4142876;28;20410;-75
2022/09/08 08:06:11;;;;;;;11.15;8.68;;;32.00;98.20;;;;;;4160071;28;20056;-69
2022/09/08 08:08:47;;;;;;;9.20;8.27;;;31.90;98.00;;;;;;4159025;28;20500;-69
2022/09/08 08:11:24;;;;;;;9.38;8.30;;;31.90;97.70;;;;;;4160617;28;20540;-68
2022/09/08 08:14:01;;;;;;;9.02;7.95;;;31.80;98.00;;;;;;4152461;28;20092;-69
2022/09/08 08:16:09;;;;;;;9.85;8.02;;;31.60;98.00;;;;;;4155351;28;20539;-69
2022/09/08 08:18:38;;;;;;;8.23;7.43;;;31.40;98.40;;;;;;4160172;28;20061;-68
2022/09/08 08:21:08;;;;;;;8.68;7.78;;;31.20;98.30;;;;;;4160209;28;20432;-70
2022/09/08 08:23:54;;;;;;;8.13;7.35;;;31.30;98.60;;;;;;4159956;28;20735;-69
2022/09/08 08:26:19;;;;;;;8.65;7.45;;;31.30;98.30;;;;;;4159483;28;20056;-69
2022/09/08 08:28:27;;;;;;;9.38;7.15;;;31.30;98.40;;;;;;4160304;28;20038;-70
2022/09/08 08:30:33;;;;;;;8.23;7.30;;;31.40;98.50;;;;;;4159952;28;20535;-70
2022/09/08 08:32:42;;;;;;;9.07;7.63;;;31.30;98.60;;;;;;4151142;28;20038;-70
2022/09/08 08:34:52;;;;;;;8.02;7.10;;;31.30;98.80;;;;;;4141902;28;20857;-70
2022/09/08 08:37:03;;;;;;;7.63;6.72;;;31.30;98.90;;;;;;4173121;28;20091;-69
2022/09/08 08:39:23;;;;;;;10.73;6.20;;;31.40;98.90;;;;;;4159360;28;20049;-70
2022/09/08 08:41:54;;;;;;;7.10;6.40;;;31.30;99.20;;;;;;3252055;28;10001102;-67
2022/09/08 08:44:41;;;;;;;7.82;6.25;;;31.40;98.60;;;;;;4139684;28;20476;-68
2022/09/08 08:47:10;;;;;;;6.90;6.10;;;31.40;98.50;;;;;;4139831;28;20100;-69
2022/09/08 08:49:40;;;;;;;7.07;6.18;;;31.40;98.60;;;;;;4130828;28;20120;-68
2022/09/08 08:52:16;;;;;;;7.88;6.43;;;31.40;98.70;;;;;;4131913;28;20794;-69
2022/09/08 08:55:26;;;;;;;6.53;5.93;;;31.40;98.40;;;;;;4104217;28;20070;-69
2022/09/08 08:58:00;;;;;;;8.15;6.32;;;31.40;98.40;;;;;;4101765;28;20157;-68
2022/09/08 09:00:41;;;;;;;7.78;6.70;;;31.40;98.30;;;;;;4104324;28;20061;-68
2022/09/08 09:03:18;;;;;;;6.95;6.18;;;31.40;98.30;;;;;;4114150;28;20055;-69
2022/09/08 09:06:14;;;;;;;6.97;6.25;;;31.40;98.60;;;;;;4088183;28;20058;-69
2022/09/08 09:08:51;;;;;;;6.88;6.28;;;31.30;98.60;;;;;;4103037;28;20050;-69
2022/09/08 09:11:27;;;;;;;6.72;6.13;;;31.30;98.80;;;;;;4109327;28;20351;-69
2022/09/08 09:13:48;;;;;;;9.20;6.25;;;31.30;99.20;;;;;;4109538;28;20849;-69
2022/09/08 09:16:01;;;;;;;;;;;31.30;99.40;;;;;;4099778;28;20133;-70
2022/09/08 09:18:59;;;;;;;5.93;5.40;;;31.30;99.80;;;;;;4106216;28;19961;-68
2022/09/08 09:21:36;;;;;;;10.13;5.38;;;31.20;99.90;;;;;;4098699;28;20094;-67
2022/09/08 09:24:18;;;;;;;8.93;5.65;;;31.20;99.90;;;;;;4109706;28;20581;-68
2022/09/08 09:26:23;;;;;;;6.32;5.65;;;31.20;99.90;;;;;;4106666;28;20066;-67
2022/09/08 09:28:51;;;;;;;6.45;5.55;;;31.20;99.90;;;;;;4106576;28;20047;-68
2022/09/08 09:31:22;;;;;;;8.05;5.93;;;31.10;99.90;;;;;;4101336;28;20054;-68
2022/09/08 09:33:59;;;;;;;7.78;5.90;;;31.10;99.90;;;;;;4143274;28;20078;-68
2022/09/08 09:36:29;;;;;;;16.08;6.40;;;31.00;99.90;;;;;;4142851;28;20776;-68
2022/09/08 09:38:52;;;;;;;7.72;6.20;;;31.00;99.90;;;;;;4143326;28;20070;-70
2022/09/08 09:41:21;;;;;;;8.52;7.22;;;31.00;99.90;;;;;;4143762;28;20137;-70
2022/09/08 09:44:00;;;;;;;12.13;8.02;;;31.00;99.90;;;;;;4159578;28;20056;-70
2022/09/08 09:46:44;;;;;;;7.65;6.85;;;30.90;99.90;;;;;;4143274;28;20050;-70
2022/09/08 09:49:08;;;;;;;;;;;31.00;99.90;;;;;;4144389;28;20057;-71
2022/09/08 09:51:44;;;;;;;7.47;5.75;;;31.00;99.90;;;;;;4140213;28;19925;-70
2022/09/08 09:54:18;;;;;;;6.45;5.60;;;31.00;99.90;;;;;;4158004;28;20064;-70
2022/09/08 09:56:52;;;;;;;6.00;5.45;;;30.90;99.90;;;;;;4140148;28;20532;-69
2022/09/08 09:59:41;;;;;;;8.55;5.50;;;30.90;99.90;;;;;;4143408;28;20054;-67
2022/09/08 10:02:10;;;;;;;5.57;5.07;;;30.90;99.90;;;;;;4142549;28;20133;-69
2022/09/08 10:04:46;;;;;;;5.95;5.05;;;30.80;99.90;;;;;;4126841;28;20054;-69
2022/09/08 10:07:18;;;;;;;6.22;4.80;;;30.80;99.90;;;;;;4137885;28;20052;-69
2022/09/08 10:09:48;;;;;;;8.38;5.35;;;30.60;99.90;;;;;;4143037;28;20056;-71
2022/09/08 10:12:08;;;;;;;6.60;5.38;;;30.60;99.90;;;;;;4157894;28;20050;-71
2022/09/08 10:14:39;;;;;;;6.38;5.30;;;30.60;99.90;;;;;;4174673;28;20051;-69
2022/09/08 10:17:22;;;;;;;6.38;5.57;;;30.70;99.90;;;;;;4141876;28;20049;-69
2022/09/08 10:19:57;;;;;;;6.03;5.30;;;30.70;99.90;;;;;;4157297;28;20613;-70
2022/09/08 10:22:33;;;;;;;6.30;5.53;;;30.70;99.90;;;;;;4156849;28;20065;-70
2022/09/08 10:25:12;;;;;;;5.65;5.03;;;30.70;99.90;;;;;;4156469;28;20508;-70
2022/09/08 10:27:48;;;;;;;8.43;4.97;;;30.70;99.90;;;;;;4156217;28;20049;-70
2022/09/08 10:30:17;;;;;;;7.15;5.28;;;30.70;99.90;;;;;;4156418;28;20460;-70
2022/09/08 10:32:43;;;;;;;5.78;4.90;;;30.70;99.90;;;;;;4140062;28;20142;-69
2022/09/08 10:35:06;;;;;;;6.60;4.95;;;30.60;99.90;;;;;;4155951;28;20135;-70
2022/09/08 10:37:43;;;;;;;5.70;4.90;;;30.60;99.90;;;;;;4156380;28;20045;-68
2022/09/08 10:40:08;;;;;;;9.98;4.72;;;30.60;99.90;;;;;;4155080;28;20119;-69
2022/09/08 10:42:37;;;;;;;7.40;4.20;;;30.60;99.90;;;;;;4138690;28;20058;-69
2022/09/08 10:45:10;;;;;;;14.75;4.72;;;30.50;99.90;;;;;;4140539;28;20062;-70
2022/09/08 10:47:48;;;;;;;17.27;4.93;;;30.50;99.90;;;;;;4155386;28;20431;-69
2022/09/08 10:50:19;;;;;;;14.98;5.50;;;30.40;99.90;;;;;;4152276;28;20056;-70
2022/09/08 10:52:51;;;;;;;13.60;4.97;;;30.40;99.90;;;;;;4141132;28;20054;-70
2022/09/08 10:55:29;;;;;;;15.45;5.03;;;30.30;99.90;;;;;;4141247;28;20801;-70
2022/09/08 10:57:51;;;;;;;9.20;4.75;;;30.30;99.90;;;;;;4141872;28;20089;-70
2022/09/08 11:00:14;;;;;;;6.25;4.95;;;30.20;99.90;;;;;;4142057;28;20056;-70
2022/09/08 11:02:35;;;;;;;6.18;4.70;;;30.20;99.90;;;;;;4139642;28;20081;-69
2022/09/08 11:05:05;;;;;;;7.03;4.88;;;30.20;99.90;;;;;;4173568;28;20149;-69
2022/09/08 11:07:44;;;;;;;5.63;4.63;;;30.10;99.90;;;;;;4139802;28;20152;-70
2022/09/08 11:10:23;;;;;;;8.27;5.00;;;30.10;99.90;;;;;;4139334;28;20064;-70
2022/09/08 11:12:49;;;;;;;6.35;5.35;;;30.10;99.90;;;;;;4156442;28;20731;-70
2022/09/08 11:15:28;;;;;;;7.95;5.57;;;30.10;99.90;;;;;;4141873;28;20586;-69
2022/09/08 11:17:47;;;;;;;6.93;5.90;;;30.10;99.90;;;;;;4141730;28;20535;-69
2022/09/08 11:20:08;;;;;;;11.32;6.15;;;30.00;99.90;;;;;;4142218;28;20058;-69
2022/09/08 11:22:29;;;;;;;7.00;5.57;;;30.00;99.90;;;;;;4142476;28;20053;-69
2022/09/08 11:24:48;;;;;;;9.43;5.97;;;30.00;99.90;;;;;;4142765;28;20103;-70
2022/09/08 11:27:08;;;;;;;12.15;5.47;;;30.00;99.90;;;;;;4142215;28;20048;-67
2022/09/08 11:29:16;;;;;;;6.78;5.68;;;29.90;99.90;;;;;;4135401;28;20536;-68
2022/09/08 11:32:01;;;;;;;5.78;5.13;;;29.90;99.90;;;;;;4134648;28;20492;-70
2022/09/08 11:34:30;;;;;;;7.13;5.60;;;29.90;99.90;;;;;;4135095;28;20050;-70
2022/09/08 11:37:06;;;;;;;8.82;5.65;;;29.90;99.90;;;;;;4140992;28;20042;-70
2022/09/08 11:39:41;;;;;;;10.07;5.63;;;29.80;99.90;;;;;;4137714;28;20042;-70
2022/09/08 11:42:10;;;;;;;6.60;5.50;;;29.80;99.90;;;;;;4141880;28;20049;-69
2022/09/08 11:44:51;;;;;;;8.23;6.25;;;29.80;99.90;;;;;;4140735;28;20049;-69
2022/09/08 11:47:09;;;;;;;7.53;6.15;;;29.80;99.90;;;;;;4142252;28;20636;-69
2022/09/08 11:49:46;;;;;;;11.50;6.70;;;29.80;99.90;;;;;;4144898;28;20517;-70
2022/09/08 11:52:45;;;;;;;13.02;6.80;;;29.80;99.90;;;;;;4144436;28;20480;-71
2022/09/08 11:55:18;;;;;;;9.43;6.65;;;29.70;99.90;;;;;;4144510;28;20100;-68
2022/09/08 11:57:54;;;;;;;7.72;5.50;;;29.60;99.90;;;;;;4142617;28;20557;-70
2022/09/08 12:00:30;;;;;;;8.80;3.90;;;29.40;99.90;;;;;;4140923;28;20050;-69